createdAt,value
2018-12-24T00:00:44.757Z,99.99
2018-12-24T00:02:48.766Z,99.99
2018-12-24T00:03:48.667Z,99.99
2018-12-24T00:05:52.668Z,99.99
2018-12-24T00:06:52.581Z,99.99
2018-12-24T00:08:57.089Z,99.99
2018-12-24T00:09:57.004Z,99.99
2018-12-24T00:12:06.981Z,99.99
2018-12-24T00:13:00.921Z,99.99
2018-12-24T00:14:53.797Z,99.99
2018-12-24T00:15:53.761Z,99.99
2018-12-24T00:17:57.707Z,99.99
2018-12-24T00:18:57.728Z,99.99
2018-12-24T00:21:01.690Z,99.99
2018-12-24T00:22:01.578Z,99.99
2018-12-24T00:24:05.576Z,99.99
2018-12-24T00:25:05.487Z,99.99
2018-12-24T00:27:09.488Z,99.99
2018-12-24T00:28:09.397Z,99.99
2018-12-24T00:30:13.408Z,99.99
2018-12-24T00:31:13.378Z,99.99
2018-12-24T00:33:17.321Z,99.99
2018-12-24T00:34:17.219Z,99.99
2018-12-24T00:35:17.293Z,99.99
2018-12-24T00:36:17.198Z,99.99
2018-12-24T00:37:17.137Z,99.99
2018-12-24T00:38:17.210Z,99.99
2018-12-24T00:39:17.081Z,99.99
2018-12-24T00:40:17.130Z,99.99
2018-12-24T00:41:17.016Z,99.99
2018-12-24T00:42:17.028Z,99.99
2018-12-24T00:43:16.970Z,99.99
2018-12-24T00:44:17.038Z,99.99
2018-12-24T00:45:16.907Z,99.99
2018-12-24T00:46:16.946Z,99.99
2018-12-24T00:47:16.848Z,99.99
2018-12-24T00:48:16.859Z,99.99
2018-12-24T00:49:16.797Z,99.99
2018-12-24T00:50:16.883Z,99.99
2018-12-24T00:51:16.739Z,99.99
2018-12-24T00:52:16.707Z,99.99
2018-12-24T00:53:16.687Z,99.99
2018-12-24T00:54:16.696Z,99.99
2018-12-24T00:55:16.617Z,99.99
2018-12-24T00:56:16.709Z,99.99
2018-12-24T00:57:16.566Z,99.99
2018-12-24T00:58:16.620Z,99.99
2018-12-24T00:59:16.518Z,99.99
2018-12-24T01:00:16.532Z,99.99
2018-12-24T01:01:16.449Z,99.99
2018-12-24T01:02:16.438Z,99.99
2018-12-24T01:03:16.410Z,99.99
2018-12-24T01:04:16.458Z,99.99
2018-12-24T01:05:16.343Z,99.99
2018-12-24T01:06:16.358Z,99.99
2018-12-24T01:07:16.278Z,99.99
2018-12-24T01:08:16.261Z,99.99
2018-12-24T01:09:16.230Z,99.99
2018-12-24T01:10:16.281Z,99.99
2018-12-24T01:11:16.180Z,99.99
2018-12-24T01:12:24.353Z,99.99
2018-12-24T01:13:16.113Z,99.99
2018-12-24T01:14:16.110Z,99.99
2018-12-24T01:15:16.067Z,99.99
2018-12-24T01:16:16.121Z,99.99
2018-12-24T01:17:15.999Z,99.99
2018-12-24T01:18:17.063Z,99.99
2018-12-24T01:19:15.941Z,99.99
2018-12-24T01:20:15.942Z,99.99
2018-12-24T01:21:15.893Z,99.99
2018-12-24T01:22:15.954Z,99.99
2018-12-24T01:23:15.817Z,99.99
2018-12-24T01:24:15.809Z,99.99
2018-12-24T01:25:15.872Z,99.99
2018-12-24T01:26:15.739Z,99.99
2018-12-24T01:27:15.787Z,99.99
2018-12-24T01:28:15.701Z,99.99
2018-12-24T01:29:15.660Z,99.99
2018-12-24T01:30:15.628Z,99.99
2018-12-24T01:31:15.697Z,99.99
2018-12-24T01:32:15.568Z,99.99
2018-12-24T01:33:15.610Z,99.99
2018-12-24T01:34:15.513Z,99.99
2018-12-24T01:35:15.520Z,99.99
2018-12-24T01:36:15.460Z,99.99
2018-12-24T01:37:15.642Z,99.99
2018-12-24T01:38:15.415Z,99.99
2018-12-24T01:39:15.439Z,99.99
2018-12-24T01:40:15.338Z,99.99
2018-12-24T01:41:16.382Z,99.99
2018-12-24T01:42:15.292Z,99.99
2018-12-24T01:43:15.376Z,99.99
2018-12-24T01:44:15.239Z,99.99
2018-12-24T01:45:15.202Z,99.99
2018-12-24T01:46:15.277Z,99.99
2018-12-24T01:47:15.145Z,99.99
2018-12-24T01:48:15.200Z,99.99
2018-12-24T01:49:15.089Z,99.99
2018-12-24T01:50:15.127Z,99.99
2018-12-24T01:51:15.029Z,99.99
2018-12-24T01:52:15.110Z,99.99
2018-12-24T01:53:14.982Z,99.99
2018-12-24T01:54:15.051Z,99.99
2018-12-24T01:55:14.919Z,99.99
2018-12-24T01:56:14.890Z,99.99
2018-12-24T01:57:14.951Z,99.99
2018-12-24T01:58:14.844Z,99.99
2018-12-24T01:59:16.806Z,99.99
2018-12-24T02:00:14.771Z,99.99
2018-12-24T02:01:14.750Z,99.99
2018-12-24T02:02:14.715Z,99.99
2018-12-24T02:03:14.767Z,99.99
2018-12-24T02:04:14.644Z,99.99
2018-12-24T02:05:14.678Z,99.99
2018-12-24T02:06:14.603Z,99.99
2018-12-24T02:07:14.587Z,99.99
2018-12-24T02:08:14.540Z,99.99
2018-12-24T02:09:15.528Z,99.99
2018-12-24T02:10:14.476Z,99.99
2018-12-24T02:11:14.518Z,99.99
2018-12-24T02:12:14.425Z,99.99
2018-12-24T02:13:14.427Z,99.99
2018-12-24T02:14:14.367Z,99.99
2018-12-24T02:15:14.445Z,99.99
2018-12-24T02:16:14.317Z,99.99
2018-12-24T02:17:14.285Z,99.99
2018-12-24T02:18:14.249Z,99.99
2018-12-24T02:19:14.260Z,99.99
2018-12-24T02:20:14.207Z,99.99
2018-12-24T02:21:14.267Z,99.99
2018-12-24T02:22:14.184Z,99.99
2018-12-24T02:23:28.756Z,99.99
2018-12-24T02:24:14.184Z,99.99
2018-12-24T02:25:14.079Z,99.99
2018-12-24T02:26:14.110Z,99.99
2018-12-24T02:27:13.996Z,99.99
2018-12-24T02:28:13.976Z,99.99
2018-12-24T02:29:14.018Z,99.99
2018-12-24T02:30:14.065Z,99.99
2018-12-24T02:31:13.930Z,99.99
2018-12-24T02:32:13.868Z,99.99
2018-12-24T02:33:13.830Z,99.99
2018-12-24T02:34:13.839Z,99.99
2018-12-24T02:35:13.766Z,99.99
2018-12-24T02:36:13.846Z,99.99
2018-12-24T02:37:13.704Z,99.99
2018-12-24T02:38:13.686Z,99.99
2018-12-24T02:39:13.661Z,99.99
2018-12-24T02:40:13.668Z,99.99
2018-12-24T02:41:13.604Z,99.99
2018-12-24T02:42:13.576Z,99.99
2018-12-24T02:43:13.538Z,99.99
2018-12-24T02:44:13.601Z,99.99
2018-12-24T02:45:13.487Z,99.99
2018-12-24T02:46:13.507Z,99.99
2018-12-24T02:47:13.427Z,99.99
2018-12-24T02:48:13.572Z,99.99
2018-12-24T02:49:13.366Z,99.99
2018-12-24T02:50:13.429Z,99.99
2018-12-24T02:51:13.309Z,99.99
2018-12-24T02:52:13.335Z,99.99
2018-12-24T02:53:13.247Z,99.99
2018-12-24T02:54:13.216Z,99.99
2018-12-24T02:55:13.273Z,99.99
2018-12-24T02:56:13.167Z,99.99
2018-12-24T02:57:13.181Z,99.99
2018-12-24T02:58:13.107Z,99.99
2018-12-24T02:59:13.075Z,99.99
2018-12-24T03:00:13.056Z,99.99
2018-12-24T03:01:13.097Z,99.99
2018-12-24T03:02:12.991Z,99.99
2018-12-24T03:03:13.014Z,99.99
2018-12-24T03:04:12.940Z,99.99
2018-12-24T03:05:12.910Z,99.99
2018-12-24T03:06:13.935Z,99.99
2018-12-24T03:07:12.859Z,99.99
2018-12-24T03:08:12.944Z,99.99
2018-12-24T03:09:12.798Z,99.99
2018-12-24T03:10:12.759Z,99.99
2018-12-24T03:11:12.842Z,99.99
2018-12-24T03:12:12.709Z,99.99
2018-12-24T03:13:12.758Z,99.99
2018-12-24T03:14:12.645Z,99.99
2018-12-24T03:15:12.617Z,99.99
2018-12-24T03:16:12.607Z,99.99
2018-12-24T03:17:12.675Z,99.99
2018-12-24T03:18:12.535Z,99.99
2018-12-24T03:19:12.590Z,99.99
2018-12-24T03:20:12.477Z,99.99
2018-12-24T03:21:12.460Z,99.99
2018-12-24T03:22:12.497Z,99.99
2018-12-24T03:23:12.393Z,99.99
2018-12-24T03:24:12.408Z,99.99
2018-12-24T03:25:12.336Z,99.99
2018-12-24T03:26:12.307Z,99.99
2018-12-24T03:27:12.330Z,99.99
2018-12-24T03:28:12.252Z,99.99
2018-12-24T03:29:12.239Z,99.99
2018-12-24T03:30:12.196Z,99.99
2018-12-24T03:31:12.193Z,99.99
2018-12-24T03:32:12.148Z,99.99
2018-12-24T03:33:12.159Z,99.99
2018-12-24T03:34:12.079Z,99.99
2018-12-24T03:35:12.066Z,99.99
2018-12-24T03:36:12.016Z,99.99
2018-12-24T03:37:12.087Z,99.99
2018-12-24T03:38:11.977Z,99.99
2018-12-24T03:39:11.996Z,99.99
2018-12-24T03:40:11.905Z,99.99
2018-12-24T03:41:11.906Z,99.99
2018-12-24T03:42:11.851Z,99.99
2018-12-24T03:43:12.892Z,99.99
2018-12-24T03:44:11.787Z,99.99
2018-12-24T03:45:11.840Z,99.99
2018-12-24T03:46:11.746Z,99.99
2018-12-24T03:47:11.705Z,99.99
2018-12-24T03:48:11.683Z,99.99
2018-12-24T03:49:11.748Z,99.99
2018-12-24T03:50:11.622Z,99.99
2018-12-24T03:51:11.657Z,99.99
2018-12-24T03:52:11.560Z,99.99
2018-12-24T03:53:11.565Z,99.99
2018-12-24T03:54:11.506Z,99.99
2018-12-24T03:55:11.578Z,99.99
2018-12-24T03:56:11.449Z,99.99
2018-12-24T03:57:11.488Z,99.99
2018-12-24T03:58:11.398Z,99.99
2018-12-24T03:59:11.409Z,99.99
2018-12-24T04:00:11.337Z,99.99
2018-12-24T04:01:11.439Z,99.99
2018-12-24T04:02:11.275Z,99.99
2018-12-24T04:03:11.248Z,99.99
2018-12-24T04:04:11.216Z,99.99
2018-12-24T04:05:11.237Z,99.99
2018-12-24T04:06:11.170Z,99.99
2018-12-24T04:07:11.150Z,99.99
2018-12-24T04:08:11.107Z,99.99
2018-12-24T04:09:11.155Z,99.99
2018-12-24T04:10:11.057Z,99.99
2018-12-24T04:11:11.065Z,99.99
2018-12-24T04:12:10.986Z,99.99
2018-12-24T04:13:12.009Z,99.99
2018-12-24T04:14:10.938Z,99.99
2018-12-24T04:15:10.987Z,99.99
2018-12-24T04:16:10.877Z,99.99
2018-12-24T04:17:10.903Z,99.99
2018-12-24T04:18:10.836Z,99.99
2018-12-24T04:19:10.787Z,99.99
2018-12-24T04:20:11.838Z,99.99
2018-12-24T04:21:10.735Z,99.99
2018-12-24T04:22:10.728Z,99.99
2018-12-24T04:23:10.677Z,99.99
2018-12-24T04:24:10.664Z,99.99
2018-12-24T04:25:10.619Z,99.99
2018-12-24T04:26:10.648Z,99.99
2018-12-24T04:27:10.555Z,99.99
2018-12-24T04:28:10.563Z,99.99
2018-12-24T04:29:10.506Z,99.99
2018-12-24T04:30:10.576Z,99.99
2018-12-24T04:31:10.460Z,99.99
2018-12-24T04:32:10.490Z,99.99
2018-12-24T04:33:10.392Z,99.99
2018-12-24T04:34:10.395Z,99.99
2018-12-24T04:35:10.336Z,99.99
2018-12-24T04:36:10.308Z,99.99
2018-12-24T04:37:10.317Z,99.99
2018-12-24T04:38:10.247Z,99.99
2018-12-24T04:39:10.326Z,99.99
2018-12-24T04:40:10.226Z,99.99
2018-12-24T04:41:10.171Z,99.99
2018-12-24T04:42:10.262Z,99.99
2018-12-24T04:43:10.109Z,99.99
2018-12-24T04:44:10.146Z,99.99
2018-12-24T04:45:10.046Z,99.99
2018-12-24T04:46:10.066Z,99.99
2018-12-24T04:47:09.986Z,99.99
2018-12-24T04:48:10.073Z,99.99
2018-12-24T04:49:09.936Z,99.99
2018-12-24T04:50:09.977Z,99.99
2018-12-24T04:51:09.877Z,99.99
2018-12-24T04:52:09.886Z,99.99
2018-12-24T04:53:09.819Z,99.99
2018-12-24T04:54:09.912Z,99.99
2018-12-24T04:55:09.767Z,99.99
2018-12-24T04:56:09.725Z,99.99
2018-12-24T04:57:09.705Z,99.99
2018-12-24T04:58:09.727Z,99.99
2018-12-24T04:59:09.702Z,99.99
2018-12-24T05:00:09.635Z,99.99
2018-12-24T05:01:09.590Z,99.99
2018-12-24T05:02:09.648Z,99.99
2018-12-24T05:03:09.526Z,99.99
2018-12-24T05:04:09.566Z,99.99
2018-12-24T05:05:09.479Z,99.99
2018-12-24T05:06:09.467Z,99.99
2018-12-24T05:07:09.415Z,99.99
2018-12-24T05:08:09.497Z,99.99
2018-12-24T05:09:09.367Z,99.99
2018-12-24T05:10:09.386Z,99.99
2018-12-24T05:11:09.306Z,99.99
2018-12-24T05:12:09.287Z,99.99
2018-12-24T05:13:09.252Z,99.99
2018-12-24T05:14:09.329Z,99.99
2018-12-24T05:15:09.188Z,99.99
2018-12-24T05:16:09.225Z,99.99
2018-12-24T05:17:09.227Z,99.99
2018-12-24T05:18:09.108Z,99.99
2018-12-24T05:19:09.135Z,99.99
2018-12-24T05:20:09.046Z,99.99
2018-12-24T05:21:09.068Z,99.99
2018-12-24T05:22:09.000Z,99.99
2018-12-24T05:23:08.965Z,99.99
2018-12-24T05:24:08.967Z,99.99
2018-12-24T05:25:08.895Z,99.99
2018-12-24T05:26:08.977Z,99.99
2018-12-24T05:27:08.847Z,99.99
2018-12-24T05:28:08.818Z,99.99
2018-12-24T05:29:08.896Z,99.99
2018-12-24T05:30:08.759Z,99.99
2018-12-24T05:31:08.806Z,99.99
2018-12-24T05:32:08.695Z,99.99
2018-12-24T05:33:08.678Z,99.99
2018-12-24T05:34:08.645Z,99.99
2018-12-24T05:35:08.726Z,99.99
2018-12-24T05:36:08.585Z,99.99
2018-12-24T05:37:08.639Z,99.99
2018-12-24T05:38:08.535Z,99.99
2018-12-24T05:39:08.547Z,99.99
2018-12-24T05:40:08.476Z,99.99
2018-12-24T05:41:08.457Z,99.99
2018-12-24T05:42:08.408Z,99.99
2018-12-24T05:43:08.466Z,99.99
2018-12-24T05:44:08.376Z,99.99
2018-12-24T05:45:08.327Z,99.99
2018-12-24T05:46:08.394Z,99.99
2018-12-24T05:47:08.276Z,99.99
2018-12-24T05:48:08.297Z,99.99
2018-12-24T05:49:08.218Z,99.99
2018-12-24T05:50:08.206Z,99.99
2018-12-24T05:51:08.156Z,99.99
2018-12-24T05:52:08.215Z,99.99
2018-12-24T05:53:08.125Z,99.99
2018-12-24T05:54:08.069Z,99.99
2018-12-24T05:55:08.038Z,99.99
2018-12-24T05:56:08.049Z,99.99
2018-12-24T05:57:08.000Z,99.99
2018-12-24T05:58:08.057Z,99.99
2018-12-24T05:59:07.928Z,99.99
2018-12-24T06:00:07.897Z,99.99
2018-12-24T06:01:07.980Z,99.99
2018-12-24T06:02:07.839Z,99.99
2018-12-24T06:03:07.887Z,99.99
2018-12-24T06:04:07.793Z,99.99
2018-12-24T06:05:07.776Z,99.99
2018-12-24T06:06:07.800Z,99.99
2018-12-24T06:07:07.709Z,99.99
2018-12-24T06:08:07.713Z,99.99
2018-12-24T06:09:07.642Z,99.99
2018-12-24T06:10:07.628Z,99.99
2018-12-24T06:11:07.587Z,99.99
2018-12-24T06:12:07.625Z,99.99
2018-12-24T06:13:07.538Z,99.99
2018-12-24T06:14:07.538Z,99.99
2018-12-24T06:15:07.476Z,99.99
2018-12-24T06:16:07.447Z,99.99
2018-12-24T06:17:07.456Z,99.99
2018-12-24T06:18:07.388Z,99.99
2018-12-24T06:19:07.466Z,99.99
2018-12-24T06:20:07.330Z,99.99
2018-12-24T06:21:07.299Z,99.99
2018-12-24T06:22:07.288Z,99.99
2018-12-24T06:23:07.247Z,99.99
2018-12-24T06:24:07.296Z,99.99
2018-12-24T06:25:07.209Z,99.99
2018-12-24T06:26:07.158Z,99.99
2018-12-24T06:27:07.131Z,99.99
2018-12-24T06:28:07.136Z,99.99
2018-12-24T06:29:07.072Z,99.99
2018-12-24T06:30:07.145Z,99.99
2018-12-24T06:31:07.017Z,99.99
2018-12-24T06:32:07.038Z,99.99
2018-12-24T06:33:06.958Z,99.99
2018-12-24T06:34:06.947Z,99.99
2018-12-24T06:35:06.909Z,99.99
2018-12-24T06:36:06.967Z,99.99
2018-12-24T06:37:06.857Z,99.99
2018-12-24T06:38:06.898Z,99.99
2018-12-24T06:39:06.786Z,99.99
2018-12-24T06:40:06.778Z,99.99
2018-12-24T06:41:06.727Z,99.99
2018-12-24T06:42:06.709Z,99.99
2018-12-24T06:43:06.677Z,99.99
2018-12-24T06:44:07.139Z,99.99
2018-12-24T06:45:06.617Z,99.99
2018-12-24T06:46:06.619Z,99.99
2018-12-24T06:47:06.555Z,99.99
2018-12-24T06:48:06.627Z,99.99
2018-12-24T06:49:06.498Z,99.99
2018-12-24T06:50:06.557Z,99.99
2018-12-24T06:51:06.438Z,99.99
2018-12-24T06:52:06.445Z,99.99
2018-12-24T06:53:06.393Z,99.99
2018-12-24T06:54:06.456Z,99.99
2018-12-24T06:55:06.328Z,99.99
2018-12-24T06:56:06.368Z,99.99
2018-12-24T06:57:06.278Z,99.99
2018-12-24T06:58:06.237Z,99.99
2018-12-24T06:59:06.286Z,99.99
2018-12-24T07:00:06.187Z,99.99
2018-12-24T07:01:06.195Z,99.99
2018-12-24T07:02:06.128Z,99.99
2018-12-24T07:03:06.098Z,99.99
2018-12-24T07:04:06.145Z,99.99
2018-12-24T07:05:06.118Z,99.99
2018-12-24T07:06:06.029Z,99.99
2018-12-24T07:07:06.027Z,99.99
2018-12-24T07:08:05.955Z,99.99
2018-12-24T07:09:05.925Z,99.99
2018-12-24T07:10:05.946Z,99.99
2018-12-24T07:11:05.877Z,99.99
2018-12-24T07:12:05.858Z,99.99
2018-12-24T07:13:05.818Z,99.99
2018-12-24T07:14:05.787Z,99.99
2018-12-24T07:15:05.769Z,99.99
2018-12-24T07:16:05.725Z,99.99
2018-12-24T07:17:05.786Z,99.99
2018-12-24T07:18:05.679Z,99.99
2018-12-24T07:19:05.659Z,99.99
2018-12-24T07:20:05.632Z,99.99
2018-12-24T07:21:05.609Z,99.99
2018-12-24T07:22:05.557Z,99.99
2018-12-24T07:23:05.618Z,99.99
2018-12-24T07:24:05.500Z,99.99
2018-12-24T07:25:05.527Z,99.99
2018-12-24T07:26:05.447Z,99.99
2018-12-24T07:27:05.437Z,99.99
2018-12-24T07:28:05.402Z,99.99
2018-12-24T07:29:05.461Z,99.99
2018-12-24T07:30:05.357Z,99.99
2018-12-24T07:31:05.298Z,99.99
2018-12-24T07:32:05.380Z,99.99
2018-12-24T07:33:05.251Z,99.99
2018-12-24T07:34:05.279Z,99.99
2018-12-24T07:35:05.298Z,99.99
2018-12-24T07:36:05.173Z,99.99
2018-12-24T07:37:05.217Z,99.99
2018-12-24T07:38:05.106Z,99.99
2018-12-24T07:39:05.109Z,99.99
2018-12-24T07:40:05.048Z,99.99
2018-12-24T07:41:05.116Z,99.99
2018-12-24T07:42:04.999Z,99.99
2018-12-24T07:43:05.028Z,99.99
2018-12-24T07:44:04.947Z,99.99
2018-12-24T07:45:04.951Z,99.99
2018-12-24T07:46:04.875Z,99.99
2018-12-24T07:47:04.957Z,99.99
2018-12-24T07:48:04.827Z,99.99
2018-12-24T07:49:04.859Z,99.99
2018-12-24T07:50:04.759Z,99.99
2018-12-24T07:51:04.747Z,99.99
2018-12-24T07:52:04.779Z,99.99
2018-12-24T07:53:04.679Z,99.99
2018-12-24T07:54:04.688Z,99.99
2018-12-24T07:55:04.639Z,99.99
2018-12-24T07:56:04.589Z,99.99
2018-12-24T07:57:04.555Z,99.99
2018-12-24T07:58:04.607Z,99.99
2018-12-24T07:59:04.496Z,99.99
2018-12-24T08:00:04.516Z,99.99
2018-12-24T08:01:04.445Z,99.99
2018-12-24T08:02:04.417Z,99.99
2018-12-24T08:03:04.439Z,99.99
2018-12-24T08:04:04.367Z,99.99
2018-12-24T08:05:04.447Z,99.99
2018-12-24T08:06:04.308Z,99.99
2018-12-24T08:07:04.277Z,99.99
2018-12-24T08:08:04.367Z,99.99
2018-12-24T08:09:04.217Z,99.99
2018-12-24T08:10:04.288Z,99.99
2018-12-24T08:11:04.162Z,99.99
2018-12-24T08:12:04.137Z,99.99
2018-12-24T08:13:04.108Z,99.99
2018-12-24T08:14:04.098Z,99.99
2018-12-24T08:15:04.065Z,99.99
2018-12-24T08:16:04.106Z,99.99
2018-12-24T08:17:04.008Z,99.99
2018-12-24T08:18:04.028Z,99.99
2018-12-24T08:19:03.936Z,99.99
2018-12-24T08:20:03.928Z,99.99
2018-12-24T08:21:03.888Z,99.99
2018-12-24T08:22:03.965Z,99.99
2018-12-24T08:23:03.846Z,99.99
2018-12-24T08:24:03.855Z,99.99
2018-12-24T08:25:03.769Z,99.99
2018-12-24T08:26:03.757Z,99.99
2018-12-24T08:27:03.718Z,99.99
2018-12-24T08:28:03.676Z,99.99
2018-12-24T08:29:03.651Z,99.99
2018-12-24T08:30:03.686Z,99.99
2018-12-24T08:31:03.597Z,99.99
2018-12-24T08:32:03.599Z,99.99
2018-12-24T08:33:03.537Z,99.99
2018-12-24T08:34:03.607Z,99.99
2018-12-24T08:35:03.483Z,99.99
2018-12-24T08:36:03.518Z,99.99
2018-12-24T08:37:03.429Z,99.99
2018-12-24T08:38:03.526Z,99.99
2018-12-24T08:39:03.375Z,99.99
2018-12-24T08:40:03.436Z,99.99
2018-12-24T08:41:03.312Z,99.99
2018-12-24T08:42:03.345Z,99.99
2018-12-24T08:43:03.246Z,99.99
2018-12-24T08:44:03.226Z,99.99
2018-12-24T08:45:03.196Z,99.99
2018-12-24T08:46:03.267Z,99.99
2018-12-24T08:47:03.136Z,99.99
2018-12-24T08:48:03.187Z,99.99
2018-12-24T08:49:03.086Z,99.99
2018-12-24T08:50:03.088Z,99.99
2018-12-24T08:51:03.027Z,99.99
2018-12-24T08:52:03.108Z,99.99
2018-12-24T08:53:02.967Z,99.99
2018-12-24T08:54:03.029Z,99.99
2018-12-24T08:55:02.916Z,99.99
2018-12-24T08:56:02.927Z,99.99
2018-12-24T08:57:02.855Z,99.99
2018-12-24T08:58:02.936Z,99.99
2018-12-24T08:59:02.796Z,99.99
2018-12-24T09:00:02.778Z,99.99
2018-12-24T09:01:02.745Z,99.99
2018-12-24T09:02:02.766Z,99.99
2018-12-24T09:03:02.695Z,99.99
2018-12-24T09:04:02.767Z,99.99
2018-12-24T09:05:02.676Z,99.99
2018-12-24T09:06:02.596Z,99.99
2018-12-24T09:07:02.685Z,99.99
2018-12-24T09:08:02.546Z,99.99
2018-12-24T09:09:02.607Z,99.99
2018-12-24T09:10:02.490Z,99.99
2018-12-24T09:11:02.455Z,99.99
2018-12-24T09:12:02.518Z,99.99
2018-12-24T09:13:02.405Z,99.99
2018-12-24T09:14:02.425Z,99.99
2018-12-24T09:15:02.355Z,99.99
2018-12-24T09:16:02.315Z,99.99
2018-12-24T09:17:02.335Z,99.99
2018-12-24T09:18:02.278Z,99.99
2018-12-24T09:19:02.246Z,99.99
2018-12-24T09:20:02.205Z,99.99
2018-12-24T09:21:02.187Z,99.99
2018-12-24T09:22:02.146Z,99.99
2018-12-24T09:23:02.175Z,99.99
2018-12-24T09:24:02.097Z,99.99
2018-12-24T09:25:02.089Z,99.99
2018-12-24T09:26:02.059Z,99.99
2018-12-24T09:27:02.099Z,99.99
2018-12-24T09:28:01.990Z,99.99
2018-12-24T09:29:02.007Z,99.99
2018-12-24T09:30:01.916Z,99.99
2018-12-24T09:31:01.916Z,99.99
2018-12-24T09:32:01.886Z,99.99
2018-12-24T09:33:01.927Z,99.99
2018-12-24T09:34:01.811Z,99.99
2018-12-24T09:35:01.876Z,99.99
2018-12-24T09:36:01.758Z,99.99
2018-12-24T09:37:01.728Z,99.99
2018-12-24T09:38:01.698Z,99.99
2018-12-24T09:39:01.757Z,99.99
2018-12-24T09:40:01.637Z,99.99
2018-12-24T09:41:01.669Z,99.99
2018-12-24T09:42:01.577Z,99.99
2018-12-24T09:43:01.577Z,99.99
2018-12-24T09:44:01.537Z,99.99
2018-12-24T09:45:01.599Z,99.99
2018-12-24T09:46:01.478Z,99.99
2018-12-24T09:47:01.510Z,99.99
2018-12-24T09:48:01.423Z,99.99
2018-12-24T09:49:01.419Z,99.99
2018-12-24T09:50:01.357Z,99.99
2018-12-24T09:51:01.431Z,99.99
2018-12-24T09:52:01.319Z,99.99
2018-12-24T09:53:01.267Z,99.99
2018-12-24T09:54:01.247Z,99.99
2018-12-24T09:55:01.248Z,99.99
2018-12-24T09:56:01.196Z,99.99
2018-12-24T09:57:01.258Z,99.99
2018-12-24T09:58:01.151Z,99.99
2018-12-24T09:59:01.195Z,99.99
2018-12-24T10:00:01.087Z,99.99
2018-12-24T10:01:01.089Z,99.99
2018-12-24T10:02:01.047Z,99.99
2018-12-24T10:03:01.099Z,99.99
2018-12-24T10:04:03.030Z,99.99
2018-12-24T10:05:01.018Z,99.99
2018-12-24T10:06:00.928Z,99.99
2018-12-24T10:07:00.930Z,99.99
2018-12-24T10:08:00.877Z,99.99
2018-12-24T10:09:00.848Z,99.99
2018-12-24T10:10:00.839Z,99.99
2018-12-24T10:11:00.787Z,99.99
2018-12-24T10:12:00.849Z,99.99
2018-12-24T10:13:00.748Z,98.85
2018-12-24T10:14:00.728Z,99.99
2018-12-24T10:15:08.088Z,92.44
2018-12-24T10:16:00.777Z,86.27
2018-12-24T10:17:00.693Z,79.08
2018-12-24T10:18:00.683Z,77.21
2018-12-24T10:19:00.599Z,79.22
2018-12-24T10:20:00.687Z,78.34
2018-12-24T10:21:00.570Z,73.45
2018-12-24T10:22:00.596Z,69.52
2018-12-24T10:23:00.538Z,69.83
2018-12-24T10:24:00.605Z,70.83
2018-12-24T10:25:00.486Z,70.38
2018-12-24T10:26:00.468Z,69.93
2018-12-24T10:27:00.528Z,68.91
2018-12-24T10:28:00.457Z,65.88
2018-12-24T10:29:00.440Z,64.47
2018-12-24T10:30:00.449Z,61.11
2018-12-24T10:31:00.387Z,61.52
2018-12-24T10:32:00.458Z,60.94
2018-12-24T10:33:00.360Z,59.60
2018-12-24T10:34:00.367Z,59.69
2018-12-24T10:35:00.336Z,60.94
2018-12-24T10:36:00.379Z,59.79
2018-12-24T10:37:00.306Z,60.62
2018-12-24T10:38:00.387Z,58.53
2018-12-24T10:39:00.287Z,56.60
2018-12-24T10:40:00.317Z,55.67
2018-12-24T10:41:00.268Z,54.22
2018-12-24T10:42:00.332Z,54.90
2018-12-24T10:43:00.237Z,54.52
2018-12-24T10:44:00.327Z,54.52
2018-12-24T10:45:00.269Z,53.19
2018-12-24T10:46:00.208Z,52.52
2018-12-24T10:47:00.196Z,52.23
2018-12-24T10:48:00.305Z,52.42
2018-12-24T10:49:00.186Z,52.81
2018-12-24T10:50:00.326Z,51.36
2018-12-24T10:51:00.168Z,50.59
2018-12-24T10:52:00.248Z,51.56
2018-12-24T10:53:07.489Z,51.94
2018-12-24T10:54:53.145Z,51.17
2018-12-24T10:55:53.085Z,50.59
2018-12-24T10:57:57.170Z,50.40
2018-12-24T10:58:57.096Z,49.34
2018-12-24T11:01:01.179Z,50.59
2018-12-24T11:02:01.120Z,49.05
2018-12-24T11:04:05.151Z,47.58
2018-12-24T11:05:05.216Z,50.66
2018-12-24T11:07:09.157Z,49.00
2018-12-24T11:08:09.138Z,48.43
2018-12-24T11:10:13.387Z,49.87
2018-12-24T11:11:13.202Z,50.35
2018-12-24T11:13:17.501Z,49.96
2018-12-24T11:14:17.327Z,49.19
2018-12-24T11:16:21.507Z,49.19
2018-12-24T11:17:21.376Z,48.69
2018-12-24T11:19:25.544Z,47.61
2018-12-24T11:20:25.399Z,48.57
2018-12-24T11:22:29.573Z,50.13
2018-12-24T11:23:29.476Z,49.84
2018-12-24T11:25:33.767Z,48.88
2018-12-24T11:26:33.586Z,49.74
2018-12-24T11:28:37.718Z,49.82
2018-12-24T11:29:37.847Z,50.20
2018-12-24T11:31:42.017Z,50.10
2018-12-24T11:32:41.840Z,49.99
2018-12-24T11:34:35.066Z,50.08
2018-12-24T11:35:34.892Z,50.76
2018-12-24T11:37:39.176Z,50.46
2018-12-24T11:38:38.996Z,51.69
2018-12-24T11:40:43.297Z,50.44
2018-12-24T11:41:43.128Z,50.34
2018-12-24T11:43:47.416Z,51.40
2018-12-24T11:44:47.380Z,51.18
2018-12-24T11:46:51.526Z,52.05
2018-12-24T11:47:51.348Z,52.94
2018-12-24T11:49:55.485Z,52.75
2018-12-24T11:50:55.478Z,52.17
2018-12-24T11:52:59.758Z,53.23
2018-12-24T11:53:59.589Z,51.50
2018-12-24T11:56:04.907Z,50.51
2018-12-24T11:57:03.696Z,51.47
2018-12-24T11:59:09.023Z,52.98
2018-12-24T12:00:07.819Z,53.75
2018-12-24T12:02:12.117Z,53.63
2018-12-24T12:03:12.839Z,52.95
2018-12-24T12:05:16.228Z,55.23
2018-12-24T12:06:19.908Z,55.35
2018-12-24T12:08:20.246Z,54.58
2018-12-24T12:09:20.177Z,56.12
2018-12-24T12:11:24.466Z,52.76
2018-12-24T12:12:24.288Z,51.40
2018-12-24T12:14:17.421Z,53.41
2018-12-24T12:15:17.344Z,53.67
2018-12-24T12:16:17.341Z,55.13
2018-12-24T12:17:17.325Z,55.90
2018-12-24T12:18:17.406Z,56.38
2018-12-24T12:19:17.327Z,56.09
2018-12-24T12:20:17.426Z,56.29
2018-12-24T12:21:17.287Z,54.30
2018-12-24T12:22:17.297Z,54.56
2018-12-24T12:23:17.339Z,56.76
2018-12-24T12:24:17.262Z,55.83
2018-12-24T12:25:17.372Z,56.02
2018-12-24T12:26:17.266Z,55.16
2018-12-24T12:27:17.239Z,55.33
2018-12-24T12:28:17.354Z,54.17
2018-12-24T12:29:17.230Z,56.19
2018-12-24T12:30:17.286Z,56.29
2018-12-24T12:31:17.206Z,55.71
2018-12-24T12:32:17.213Z,56.38
2018-12-24T12:33:17.187Z,55.04
2018-12-24T12:34:17.315Z,55.62
2018-12-24T12:35:17.169Z,56.29
2018-12-24T12:36:17.237Z,57.43
2018-12-24T12:37:17.145Z,56.67
2018-12-24T12:38:17.246Z,59.16
2018-12-24T12:39:17.128Z,56.70
2018-12-24T12:40:17.247Z,57.65
2018-12-24T12:41:17.097Z,58.33
2018-12-24T12:42:17.751Z,55.35
2018-12-24T12:43:17.165Z,54.85
2018-12-24T12:44:17.087Z,55.04
2018-12-24T12:45:17.187Z,53.58
2018-12-24T12:46:17.057Z,54.89
2018-12-24T12:47:18.186Z,56.87
2018-12-24T12:48:17.038Z,57.13
2018-12-24T12:49:17.116Z,55.88
2018-12-24T12:50:17.026Z,57.29
2018-12-24T12:51:17.127Z,58.41
2018-12-24T12:52:16.986Z,57.62
2018-12-24T12:53:16.995Z,58.38
2018-12-24T12:54:17.061Z,60.68
2018-12-24T12:55:16.946Z,60.68
2018-12-24T12:56:17.065Z,62.49
2018-12-24T12:57:16.918Z,63.96
2018-12-24T12:58:17.074Z,65.01
2018-12-24T12:59:16.887Z,64.37
2018-12-24T13:00:16.936Z,62.17
2018-12-24T13:01:16.870Z,61.15
2018-12-24T13:02:18.949Z,59.81
2018-12-24T13:03:16.847Z,59.01
2018-12-24T13:04:16.855Z,60.45
2018-12-24T13:05:16.815Z,59.59
2018-12-24T13:06:16.940Z,61.12
2018-12-24T13:07:16.777Z,61.44
2018-12-24T13:08:16.836Z,59.49
2018-12-24T13:09:16.743Z,59.05
2018-12-24T13:10:16.728Z,59.14
2018-12-24T13:11:16.873Z,60.45
2018-12-24T13:12:16.697Z,57.48
2018-12-24T13:13:16.776Z,58.22
2018-12-24T13:14:16.671Z,59.56
2018-12-24T13:15:16.650Z,60.04
2018-12-24T13:16:16.628Z,58.95
2018-12-24T13:17:16.695Z,59.91
2018-12-24T13:18:16.596Z,60.74
2018-12-24T13:19:16.716Z,61.13
2018-12-24T13:20:24.810Z,61.79
2018-12-24T13:21:16.559Z,61.13
2018-12-24T13:22:16.627Z,62.84
2018-12-24T13:23:16.507Z,62.81
2018-12-24T13:24:16.661Z,64.28
2018-12-24T13:25:16.476Z,64.65
2018-12-24T13:26:16.456Z,64.18
2018-12-24T13:27:16.567Z,63.13
2018-12-24T13:28:16.427Z,62.75
2018-12-24T13:29:16.575Z,64.37
2018-12-24T13:30:16.390Z,65.52
2018-12-24T13:31:16.356Z,64.18
2018-12-24T13:32:16.345Z,63.80